Time,TemperatureF,DewpointF,PressureIn,WindDirection,WindDirectionDegrees,WindSpeedMPH,WindSpeedGustMPH,Humidity,HourlyPrecipIn,Conditions,Clouds,dailyrainin,SoftwareType,DateUTC
2013-02-18 00:00:00,42.2,36.2,29.97,West,274,0.0,0.0,79,0.00,,---,0.00,VWS V14.01,2013-02-18 08:00:00,
2013-02-18 00:05:00,42.2,35.8,29.97,West,274,0.0,0.0,78,0.00,,---,0.00,VWS V14.01,2013-02-18 08:05:00,
2013-02-18 00:10:00,42.2,36.2,29.97,West,274,0.0,0.0,79,0.00,,---,0.00,VWS V14.01,2013-02-18 08:10:00,
2013-02-18 00:15:00,42.1,36.1,29.96,West,274,0.0,0.0,79,0.00,,---,0.00,VWS V14.01,2013-02-18 08:15:00,
2013-02-18 00:20:00,42.1,36.1,29.96,West,274,0.0,0.0,79,0.00,,---,0.00,VWS V14.01,2013-02-18 08:20:00,
2013-02-18 00:25:00,42.1,36.1,29.96,West,274,0.0,0.0,79,0.00,,---,0.00,VWS V14.01,2013-02-18 08:25:00,
2013-02-18 00:30:00,41.9,35.9,29.97,West,274,0.0,0.0,79,0.00,,---,0.00,VWS V14.01,2013-02-18 08:30:00,
2013-02-18 00:35:00,41.8,36.1,29.97,West,274,0.0,0.0,80,0.00,,---,0.00,VWS V14.01,2013-02-18 08:35:00,
2013-02-18 00:40:00,41.6,35.9,29.97,West,274,0.0,0.0,80,0.00,,---,0.00,VWS V14.01,2013-02-18 08:40:00,
2013-02-18 00:45:00,41.3,35.6,29.97,West,274,0.0,0.0,80,0.00,,---,0.00,VWS V14.01,2013-02-18 08:45:00,
2013-02-18 00:50:00,41.3,35.9,29.97,West,274,0.0,0.0,81,0.00,,---,0.00,VWS V14.01,2013-02-18 08:50:00,
2013-02-18 00:55:00,41.3,35.9,29.97,West,275,0.0,0.0,81,0.00,,---,0.00,VWS V14.01,2013-02-18 08:55:00,
2013-02-18 01:00:00,41.2,35.8,29.97,West,274,0.0,0.0,81,0.00,,---,0.00,VWS V14.01,2013-02-18 09:00:00,
2013-02-18 01:05:00,41.1,35.7,29.97,West,274,0.0,0.0,81,0.00,,---,0.00,VWS V14.01,2013-02-18 09:05:00,
2013-02-18 01:10:00,40.9,35.5,29.97,West,274,0.0,0.0,81,0.00,,---,0.00,VWS V14.01,2013-02-18 09:10:00,
2013-02-18 01:15:00,40.8,35.4,29.97,West,274,0.0,0.0,81,0.00,,---,0.00,VWS V14.01,2013-02-18 09:15:00,
2013-02-18 01:20:00,40.5,35.5,29.97,West,274,0.0,0.0,82,0.00,,---,0.00,VWS V14.01,2013-02-18 09:20:00,
2013-02-18 01:25:00,40.3,35.2,29.97,West,274,0.0,0.0,82,0.00,,---,0.00,VWS V14.01,2013-02-18 09:25:00,
2013-02-18 01:30:00,40.2,35.2,29.96,West,274,0.0,0.0,82,0.00,,---,0.00,VWS V14.01,2013-02-18 09:30:00,
2013-02-18 01:35:00,40.1,35.4,29.96,West,275,0.0,0.0,83,0.00,,---,0.00,VWS V14.01,2013-02-18 09:35:00,
2013-02-18 01:40:00,40.1,35.4,29.96,West,274,0.0,0.0,83,0.00,,---,0.00,VWS V14.01,2013-02-18 09:40:00,
2013-02-18 01:45:00,39.9,35.2,29.96,West,274,0.0,0.0,83,0.00,,---,0.00,VWS V14.01,2013-02-18 09:45:00,
2013-02-18 01:50:00,39.8,35.1,29.96,West,274,0.0,0.0,83,0.00,,---,0.00,VWS V14.01,2013-02-18 09:50:00,
2013-02-18 01:55:00,39.8,35.4,29.96,West,274,0.0,0.0,84,0.00,,---,0.00,VWS V14.01,2013-02-18 09:55:00,
2013-02-18 02:00:00,39.6,35.2,29.96,West,274,0.0,0.0,84,0.00,,---,0.00,VWS V14.01,2013-02-18 10:00:00,
2013-02-18 02:05:00,39.6,35.2,29.96,West,274,0.0,0.0,84,0.00,,---,0.00,VWS V14.01,2013-02-18 10:05:00,
2013-02-18 02:10:00,39.6,35.2,29.96,West,274,0.0,0.0,84,0.00,,---,0.00,VWS V14.01,2013-02-18 10:10:00,
2013-02-18 02:15:00,39.6,35.2,29.96,West,274,0.0,0.0,84,0.00,,---,0.00,VWS V14.01,2013-02-18 10:15:00,
2013-02-18 02:20:00,39.6,35.2,29.96,West,275,0.0,0.0,84,0.00,,---,0.00,VWS V14.01,2013-02-18 10:20:00,
2013-02-18 02:25:00,39.6,35.5,29.96,West,274,0.0,0.0,85,0.00,,---,0.00,VWS V14.01,2013-02-18 10:25:00,
2013-02-18 02:30:00,39.9,36.1,29.95,West,274,0.0,0.0,86,0.00,,---,0.00,VWS V14.01,2013-02-18 10:30:00,
2013-02-18 02:35:00,40.1,36.0,29.95,West,274,0.0,0.0,85,0.00,,---,0.00,VWS V14.01,2013-02-18 10:35:00,
2013-02-18 02:40:00,40.1,36.0,29.95,West,263,0.0,0.0,85,0.00,,---,0.00,VWS V14.01,2013-02-18 10:40:00,
2013-02-18 02:45:00,40.2,36.1,29.95,West,263,0.0,0.0,85,0.00,,---,0.00,VWS V14.01,2013-02-18 10:45:00,
2013-02-18 02:50:00,40.3,36.2,29.95,West,263,0.0,0.0,85,0.00,,---,0.00,VWS V14.01,2013-02-18 10:50:00,
2013-02-18 02:55:00,40.2,35.5,29.95,West,263,0.0,0.0,83,0.00,,---,0.00,VWS V14.01,2013-02-18 10:55:00,
2013-02-18 03:00:00,39.9,35.5,29.94,West,263,0.0,0.0,84,0.00,,---,0.00,VWS V14.01,2013-02-18 11:00:00,
2013-02-18 03:05:00,39.8,35.4,29.94,West,263,0.0,0.0,84,0.00,,---,0.00,VWS V14.01,2013-02-18 11:05:00,
2013-02-18 03:10:00,39.5,34.8,29.94,West,263,0.0,0.0,83,0.00,,---,0.00,VWS V14.01,2013-02-18 11:10:00,
2013-02-18 03:15:00,39.3,34.6,29.95,West,263,0.0,0.0,83,0.00,,---,0.00,VWS V14.01,2013-02-18 11:15:00,
2013-02-18 03:20:00,39.2,34.5,29.95,West,263,0.0,0.0,83,0.00,,---,0.00,VWS V14.01,2013-02-18 11:20:00,
2013-02-18 03:25:00,39.2,34.5,29.95,West,263,0.0,0.0,83,0.00,,---,0.00,VWS V14.01,2013-02-18 11:25:00,
2013-02-18 03:30:00,39.2,34.5,29.95,West,263,0.0,1.0,83,0.00,,---,0.00,VWS V14.01,2013-02-18 11:30:00,
2013-02-18 03:35:00,39.1,34.4,29.95,West,263,0.0,0.0,83,0.00,,---,0.00,VWS V14.01,2013-02-18 11:35:00,
2013-02-18 03:40:00,38.8,34.1,29.95,West,263,0.0,0.0,83,0.00,,---,0.00,VWS V14.01,2013-02-18 11:40:00,
2013-02-18 03:45:00,38.5,33.8,29.95,West,263,0.0,0.0,83,0.00,,---,0.00,VWS V14.01,2013-02-18 11:45:00,
2013-02-18 03:50:00,38.2,33.5,29.95,West,263,0.0,0.0,83,0.00,,---,0.00,VWS V14.01,2013-02-18 11:50:00,
2013-02-18 03:55:00,38.0,33.3,29.95,West,263,0.0,0.0,83,0.00,,---,0.00,VWS V14.01,2013-02-18 11:55:00,
2013-02-18 04:00:00,37.8,33.1,29.96,West,263,0.0,0.0,83,0.00,,---,0.00,VWS V14.01,2013-02-18 12:00:00,
2013-02-18 04:05:00,37.6,33.2,29.96,West,263,0.0,0.0,84,0.00,,---,0.00,VWS V14.01,2013-02-18 12:05:00,
2013-02-18 04:10:00,37.5,33.1,29.96,West,263,0.0,0.0,84,0.00,,---,0.00,VWS V14.01,2013-02-18 12:10:00,
2013-02-18 04:15:00,37.3,32.9,29.97,West,263,0.0,0.0,84,0.00,,---,0.00,VWS V14.01,2013-02-18 12:15:00,
2013-02-18 04:20:00,37.2,32.8,29.97,West,263,0.0,0.0,84,0.00,,---,0.00,VWS V14.01,2013-02-18 12:20:00,
2013-02-18 04:25:00,37.0,32.6,29.97,West,263,0.0,0.0,84,0.00,,---,0.00,VWS V14.01,2013-02-18 12:25:00,
2013-02-18 04:30:00,36.9,32.5,29.98,West,263,0.0,0.0,84,0.00,,---,0.00,VWS V14.01,2013-02-18 12:30:00,
2013-02-18 04:35:00,36.8,32.7,29.98,West,263,0.0,0.0,85,0.00,,---,0.00,VWS V14.01,2013-02-18 12:35:00,
2013-02-18 04:40:00,36.6,32.2,29.98,West,263,0.0,0.0,84,0.00,,---,0.00,VWS V14.01,2013-02-18 12:40:00,
2013-02-18 04:45:00,36.5,32.4,29.99,West,263,0.0,0.0,85,0.00,,---,0.00,VWS V14.01,2013-02-18 12:45:00,
2013-02-18 04:50:00,36.3,32.2,29.99,West,263,0.0,0.0,85,0.00,,---,0.00,VWS V14.01,2013-02-18 12:50:00,
2013-02-18 04:55:00,36.2,32.1,29.99,West,263,0.0,0.0,85,0.00,,---,0.00,VWS V14.01,2013-02-18 12:55:00,
2013-02-18 05:00:00,36.0,31.9,29.99,West,263,0.0,0.0,85,0.00,,---,0.00,VWS V14.01,2013-02-18 13:00:00,
2013-02-18 05:05:00,35.9,31.8,29.99,West,263,0.0,0.0,85,0.00,,---,0.00,VWS V14.01,2013-02-18 13:05:00,
2013-02-18 05:10:00,35.8,31.7,29.99,West,263,0.0,0.0,85,0.00,,---,0.00,VWS V14.01,2013-02-18 13:10:00,
2013-02-18 05:15:00,35.6,31.5,30.00,West,263,0.0,0.0,85,0.00,,---,0.00,VWS V14.01,2013-02-18 13:15:00,
2013-02-18 05:20:00,35.5,31.5,30.00,West,263,0.0,0.0,85,0.00,,---,0.00,VWS V14.01,2013-02-18 13:20:00,
2013-02-18 05:25:00,35.5,31.5,30.00,West,263,0.0,0.0,85,0.00,,---,0.00,VWS V14.01,2013-02-18 13:25:00,
2013-02-18 05:30:00,35.5,31.7,30.01,West,263,0.0,0.0,86,0.00,,---,0.00,VWS V14.01,2013-02-18 13:30:00,
2013-02-18 05:35:00,35.5,31.7,30.01,West,263,0.0,0.0,86,0.00,,---,0.00,VWS V14.01,2013-02-18 13:35:00,
2013-02-18 05:40:00,35.5,31.7,30.01,West,263,0.0,0.0,86,0.00,,---,0.00,VWS V14.01,2013-02-18 13:40:00,
2013-02-18 05:45:00,35.5,32.3,30.01,West,263,0.0,0.0,88,0.00,,---,0.00,VWS V14.01,2013-02-18 13:45:00,
2013-02-18 05:50:00,35.9,32.7,30.01,West,263,0.0,0.0,88,0.00,,---,0.00,VWS V14.01,2013-02-18 13:50:00,
2013-02-18 05:55:00,36.2,33.0,30.01,West,263,0.0,0.0,88,0.00,,---,0.00,VWS V14.01,2013-02-18 13:55:00,
2013-02-18 06:00:00,36.5,33.6,30.01,West,263,0.0,0.0,89,0.00,,---,0.00,VWS V14.01,2013-02-18 14:00:00,
2013-02-18 06:05:00,36.9,34.2,30.01,West,263,0.0,0.0,90,0.00,,---,0.00,VWS V14.01,2013-02-18 14:05:00,
2013-02-18 06:10:00,37.3,34.6,30.01,West,263,0.0,0.0,90,0.00,,---,0.00,VWS V14.01,2013-02-18 14:10:00,
2013-02-18 06:15:00,37.6,34.9,30.02,West,263,0.0,0.0,90,0.00,,---,0.00,VWS V14.01,2013-02-18 14:15:00,
2013-02-18 06:20:00,37.9,35.2,30.02,West,263,0.0,0.0,90,0.00,,---,0.00,VWS V14.01,2013-02-18 14:20:00,
2013-02-18 06:25:00,38.0,35.6,30.02,West,263,0.0,0.0,91,0.00,,---,0.00,VWS V14.01,2013-02-18 14:25:00,
2013-02-18 06:30:00,38.8,36.4,30.02,West,263,0.0,0.0,91,0.00,,---,0.00,VWS V14.01,2013-02-18 14:30:00,
2013-02-18 06:35:00,39.1,36.7,30.02,West,263,0.0,0.0,91,0.00,,---,0.00,VWS V14.01,2013-02-18 14:35:00,
2013-02-18 06:40:00,39.2,36.8,30.02,West,263,0.0,0.0,91,0.00,,---,0.00,VWS V14.01,2013-02-18 14:40:00,
2013-02-18 06:45:00,39.5,37.1,30.02,West,263,0.0,0.0,91,0.00,,---,0.00,VWS V14.01,2013-02-18 14:45:00,
2013-02-18 06:50:00,39.5,37.1,30.02,West,263,0.0,0.0,91,0.00,,---,0.00,VWS V14.01,2013-02-18 14:50:00,
2013-02-18 06:55:00,39.6,37.2,30.02,West,263,0.0,0.0,91,0.00,,---,0.00,VWS V14.01,2013-02-18 14:55:00,
2013-02-18 07:00:00,39.8,37.4,30.03,West,263,0.0,0.0,91,0.00,,---,0.00,VWS V14.01,2013-02-18 15:00:00,
2013-02-18 07:05:00,39.9,37.8,30.03,West,263,0.0,0.0,92,0.00,,---,0.00,VWS V14.01,2013-02-18 15:05:00,
2013-02-18 07:10:00,40.2,38.1,30.03,West,263,0.0,0.0,92,0.00,,---,0.00,VWS V14.01,2013-02-18 15:10:00,
2013-02-18 07:15:00,40.3,38.2,30.04,West,263,0.0,0.0,92,0.00,,---,0.00,VWS V14.01,2013-02-18 15:15:00,
2013-02-18 07:20:00,40.5,38.4,30.04,West,263,0.0,0.0,92,0.00,,---,0.00,VWS V14.01,2013-02-18 15:20:00,
2013-02-18 07:25:00,40.8,38.7,30.04,West,263,0.0,0.0,92,0.00,,---,0.00,VWS V14.01,2013-02-18 15:25:00,
2013-02-18 07:30:00,40.9,38.8,30.05,West,263,0.0,0.0,92,0.00,,---,0.00,VWS V14.01,2013-02-18 15:30:00,
2013-02-18 07:35:00,41.1,39.0,30.05,West,263,0.0,0.0,92,0.00,,---,0.00,VWS V14.01,2013-02-18 15:35:00,
2013-02-18 07:40:00,41.2,39.1,30.05,West,263,0.0,0.0,92,0.00,,---,0.00,VWS V14.01,2013-02-18 15:40:00,
2013-02-18 07:45:00,41.2,39.1,30.05,West,263,0.0,0.0,92,0.00,,---,0.00,VWS V14.01,2013-02-18 15:45:00,
2013-02-18 07:50:00,41.3,39.2,30.05,West,263,0.0,0.0,92,0.00,,---,0.00,VWS V14.01,2013-02-18 15:50:00,
2013-02-18 07:55:00,41.3,39.2,30.05,West,263,0.0,0.0,92,0.00,,---,0.00,VWS V14.01,2013-02-18 15:55:00,
2013-02-18 08:00:00,41.5,39.3,30.05,SW,236,0.0,1.0,92,0.00,,---,0.00,VWS V14.01,2013-02-18 16:00:00,
2013-02-18 08:05:00,41.6,39.5,30.05,SW,236,0.0,0.0,92,0.00,,---,0.00,VWS V14.01,2013-02-18 16:05:00,
2013-02-18 08:10:00,41.8,39.7,30.05,SW,236,0.0,1.0,92,0.00,,---,0.00,VWS V14.01,2013-02-18 16:10:00,
2013-02-18 08:15:00,41.9,39.8,30.05,SW,236,0.0,1.0,92,0.00,,---,0.00,VWS V14.01,2013-02-18 16:15:00,
2013-02-18 08:20:00,41.9,39.8,30.05,South,185,0.0,1.0,92,0.00,,---,0.00,VWS V14.01,2013-02-18 16:20:00,
2013-02-18 08:25:00,41.9,39.8,30.05,South,171,0.0,1.0,92,0.00,,---,0.00,VWS V14.01,2013-02-18 16:25:00,
2013-02-18 08:30:00,42.1,40.0,30.05,South,171,0.0,1.0,92,0.00,,---,0.00,VWS V14.01,2013-02-18 16:30:00,
2013-02-18 08:35:00,42.2,40.0,30.05,South,171,0.0,1.0,92,0.00,,---,0.00,VWS V14.01,2013-02-18 16:35:00,
2013-02-18 08:40:00,42.3,40.2,30.05,South,171,0.0,1.0,92,0.00,,---,0.00,VWS V14.01,2013-02-18 16:40:00,
2013-02-18 08:45:00,42.3,40.2,30.05,South,171,0.0,1.0,92,0.00,,---,0.00,VWS V14.01,2013-02-18 16:45:00,
2013-02-18 08:50:00,42.5,40.3,30.05,South,171,0.0,1.0,92,0.00,,---,0.00,VWS V14.01,2013-02-18 16:50:00,
2013-02-18 08:55:00,42.3,39.9,30.05,South,178,0.0,1.0,91,0.00,,---,0.00,VWS V14.01,2013-02-18 16:55:00,
2013-02-18 09:00:00,42.3,40.2,30.05,South,178,0.0,1.0,92,0.00,,---,0.00,VWS V14.01,2013-02-18 17:00:00,
2013-02-18 09:05:00,42.5,40.3,30.05,ESE,112,0.0,2.0,92,0.00,,---,0.00,VWS V14.01,2013-02-18 17:05:00,
2013-02-18 09:10:00,42.6,40.2,30.05,ESE,112,0.0,2.0,91,0.00,,---,0.00,VWS V14.01,2013-02-18 17:10:00,
2013-02-18 09:15:00,42.8,40.4,30.04,ESE,112,0.0,2.0,91,0.00,,---,0.00,VWS V14.01,2013-02-18 17:15:00,
2013-02-18 09:20:00,42.9,40.5,30.04,ESE,109,1.0,2.0,91,0.00,,---,0.00,VWS V14.01,2013-02-18 17:20:00,
2013-02-18 09:25:00,43.2,40.8,30.04,North,3,1.0,2.0,91,0.00,,---,0.00,VWS V14.01,2013-02-18 17:25:00,
2013-02-18 09:30:00,43.8,41.3,30.03,North,356,0.0,3.0,91,0.00,,---,0.00,VWS V14.01,2013-02-18 17:30:00,
2013-02-18 09:35:00,44.2,41.7,30.03,North,0,2.0,2.0,91,0.00,,---,0.00,VWS V14.01,2013-02-18 17:35:00,
2013-02-18 09:40:00,44.9,42.4,30.03,NNE,31,0.0,3.0,91,0.00,,---,0.00,VWS V14.01,2013-02-18 17:40:00,
2013-02-18 09:45:00,45.7,43.2,30.03,North,0,3.0,3.0,91,0.00,,---,0.00,VWS V14.01,2013-02-18 17:45:00,
2013-02-18 09:50:00,46.2,42.5,30.03,NNW,347,2.0,3.0,87,0.00,,---,0.00,VWS V14.01,2013-02-18 17:50:00,
2013-02-18 09:55:00,46.4,42.1,30.03,NNW,336,1.0,3.0,85,0.00,,---,0.00,VWS V14.01,2013-02-18 17:55:00,
2013-02-18 10:00:00,46.7,41.5,30.02,North,350,2.0,2.0,82,0.00,,---,0.00,VWS V14.01,2013-02-18 18:00:00,
2013-02-18 10:05:00,46.8,41.3,30.02,North,354,2.0,2.0,81,0.00,,---,0.00,VWS V14.01,2013-02-18 18:05:00,
2013-02-18 10:10:00,47.6,42.1,30.02,North,359,0.0,2.0,81,0.00,,---,0.00,VWS V14.01,2013-02-18 18:10:00,
2013-02-18 10:15:00,47.9,41.7,30.02,North,359,0.0,3.0,79,0.00,,---,0.00,VWS V14.01,2013-02-18 18:15:00,
2013-02-18 10:20:00,48.5,41.3,30.02,North,0,0.0,3.0,76,0.00,,---,0.00,VWS V14.01,2013-02-18 18:20:00,
2013-02-18 10:25:00,49.2,41.3,30.02,North,7,0.0,3.0,74,0.00,,---,0.00,VWS V14.01,2013-02-18 18:25:00,
2013-02-18 10:30:00,49.8,41.9,30.02,North,4,1.0,1.0,74,0.00,,---,0.00,VWS V14.01,2013-02-18 18:30:00,
2013-02-18 10:35:00,50.2,42.2,30.02,NNW,336,1.0,2.0,74,0.00,,---,0.00,VWS V14.01,2013-02-18 18:35:00,
2013-02-18 10:40:00,50.5,41.5,30.02,WNW,292,0.0,2.0,71,0.00,,---,0.00,VWS V14.01,2013-02-18 18:40:00,
2013-02-18 10:45:00,51.1,42.4,30.02,NE,49,0.0,3.0,72,0.00,,---,0.00,VWS V14.01,2013-02-18 18:45:00,
2013-02-18 10:50:00,51.9,43.2,30.02,NNE,18,1.0,3.0,72,0.00,,---,0.00,VWS V14.01,2013-02-18 18:50:00,
2013-02-18 10:55:00,52.0,43.3,30.02,NNE,18,0.0,3.0,72,0.00,,---,0.00,VWS V14.01,2013-02-18 18:55:00,
2013-02-18 11:00:00,52.5,41.9,30.01,NE,34,0.0,0.0,67,0.00,,---,0.00,VWS V14.01,2013-02-18 19:00:00,
2013-02-18 11:05:00,52.8,41.8,30.01,North,353,0.0,3.0,66,0.00,,---,0.00,VWS V14.01,2013-02-18 19:05:00,
2013-02-18 11:10:00,53.3,41.5,30.01,WNW,298,1.0,3.0,64,0.00,,---,0.00,VWS V14.01,2013-02-18 19:10:00,
2013-02-18 11:15:00,54.1,42.2,30.01,North,359,0.0,3.0,64,0.00,,---,0.00,VWS V14.01,2013-02-18 19:15:00,
2013-02-18 11:20:00,54.7,42.4,30.01,NNE,16,0.0,3.0,63,0.00,,---,0.00,VWS V14.01,2013-02-18 19:20:00,
2013-02-18 11:25:00,55.0,41.8,30.01,WSW,256,1.0,3.0,61,0.00,,---,0.00,VWS V14.01,2013-02-18 19:25:00,
2013-02-18 11:30:00,55.7,41.2,30.00,WNW,298,1.0,1.0,58,0.00,,---,0.00,VWS V14.01,2013-02-18 19:30:00,
2013-02-18 11:35:00,55.7,41.2,30.00,North,357,0.0,5.0,58,0.00,,---,0.00,VWS V14.01,2013-02-18 19:35:00,
2013-02-18 11:40:00,55.9,41.3,30.00,NNE,16,0.0,5.0,58,0.00,,---,0.00,VWS V14.01,2013-02-18 19:40:00,
2013-02-18 11:45:00,56.2,41.6,29.99,North,0,1.0,5.0,58,0.00,,---,0.00,VWS V14.01,2013-02-18 19:45:00,
2013-02-18 11:50:00,56.6,41.6,29.99,North,357,1.0,5.0,57,0.00,,---,0.00,VWS V14.01,2013-02-18 19:50:00,
2013-02-18 11:55:00,56.5,40.5,29.99,North,0,0.0,5.0,55,0.00,,---,0.00,VWS V14.01,2013-02-18 19:55:00,
2013-02-18 12:00:00,56.6,40.6,29.98,North,6,0.0,0.0,55,0.00,,---,0.00,VWS V14.01,2013-02-18 20:00:00,
2013-02-18 12:05:00,56.7,39.8,29.98,NNE,25,1.0,1.0,53,0.00,,---,0.00,VWS V14.01,2013-02-18 20:05:00,
2013-02-18 12:10:00,57.2,38.8,29.98,NNE,17,0.0,3.0,50,0.00,,---,0.00,VWS V14.01,2013-02-18 20:10:00,
2013-02-18 12:15:00,57.5,40.0,29.97,North,356,2.0,4.0,52,0.00,,---,0.00,VWS V14.01,2013-02-18 20:15:00,
2013-02-18 12:20:00,57.8,39.8,29.97,North,0,1.0,4.0,51,0.00,,---,0.00,VWS V14.01,2013-02-18 20:20:00,
2013-02-18 12:25:00,58.3,39.8,29.97,North,0,0.0,4.0,50,0.00,,---,0.00,VWS V14.01,2013-02-18 20:25:00,
2013-02-18 12:30:00,58.6,39.5,29.97,NW,311,0.0,1.0,49,0.00,,---,0.00,VWS V14.01,2013-02-18 20:30:00,
2013-02-18 12:35:00,59.0,38.8,29.97,NW,308,0.0,1.0,47,0.00,,---,0.00,VWS V14.01,2013-02-18 20:35:00,
2013-02-18 12:40:00,59.9,39.1,29.97,WNW,291,0.0,2.0,46,0.00,,---,0.00,VWS V14.01,2013-02-18 20:40:00,
2013-02-18 12:45:00,60.4,39.5,29.96,North,354,2.0,2.0,46,0.00,,---,0.00,VWS V14.01,2013-02-18 20:45:00,
2013-02-18 12:50:00,60.4,39.0,29.96,WNW,294,0.0,2.0,45,0.00,,---,0.00,VWS V14.01,2013-02-18 20:50:00,
2013-02-18 12:55:00,60.4,39.5,29.96,WNW,298,0.0,3.0,46,0.00,,---,0.00,VWS V14.01,2013-02-18 20:55:00,
2013-02-18 13:00:00,60.7,39.3,29.96,North,353,1.0,1.0,45,0.00,,---,0.00,VWS V14.01,2013-02-18 21:00:00,
2013-02-18 13:05:00,61.2,40.3,29.96,North,353,1.0,5.0,46,0.00,,---,0.00,VWS V14.01,2013-02-18 21:05:00,
2013-02-18 13:10:00,61.0,40.1,29.96,NNW,333,0.0,6.0,46,0.00,,---,0.00,VWS V14.01,2013-02-18 21:10:00,
2013-02-18 13:15:00,61.0,39.0,29.95,North,359,0.0,6.0,44,0.00,,---,0.00,VWS V14.01,2013-02-18 21:15:00,
2013-02-18 13:20:00,61.5,39.4,29.95,North,0,0.0,6.0,44,0.00,,---,0.00,VWS V14.01,2013-02-18 21:20:00,
2013-02-18 13:25:00,62.0,39.9,29.95,North,0,3.0,6.0,44,0.00,,---,0.00,VWS V14.01,2013-02-18 21:25:00,
2013-02-18 13:30:00,61.8,39.1,29.95,North,0,2.0,6.0,43,0.00,,---,0.00,VWS V14.01,2013-02-18 21:30:00,
2013-02-18 13:35:00,62.3,37.0,29.95,NNE,28,1.0,2.0,39,0.00,,---,0.00,VWS V14.01,2013-02-18 21:35:00,
2013-02-18 13:40:00,63.1,38.4,29.95,ENE,72,2.0,3.0,40,0.00,,---,0.00,VWS V14.01,2013-02-18 21:40:00,
2013-02-18 13:45:00,63.5,40.0,29.94,NNW,340,1.0,3.0,42,0.00,,---,0.00,VWS V14.01,2013-02-18 21:45:00,
2013-02-18 13:50:00,63.4,39.9,29.94,NW,319,1.0,3.0,42,0.00,,---,0.00,VWS V14.01,2013-02-18 21:50:00,
2013-02-18 13:55:00,62.9,40.1,29.94,North,0,1.0,6.0,43,0.00,,---,0.00,VWS V14.01,2013-02-18 21:55:00,
2013-02-18 14:00:00,62.9,40.1,29.93,NNW,340,1.0,1.0,43,0.00,,---,0.00,VWS V14.01,2013-02-18 22:00:00,
2013-02-18 14:05:00,63.4,39.9,29.93,NNW,342,0.0,2.0,42,0.00,,---,0.00,VWS V14.01,2013-02-18 22:05:00,
2013-02-18 14:10:00,64.0,41.1,29.93,North,356,2.0,6.0,43,0.00,,---,0.00,VWS V14.01,2013-02-18 22:10:00,
2013-02-18 14:15:00,64.2,39.4,29.93,WNW,285,3.0,6.0,40,0.00,,---,0.00,VWS V14.01,2013-02-18 22:15:00,
2013-02-18 14:20:00,64.2,39.4,29.93,North,357,1.0,6.0,40,0.00,,---,0.00,VWS V14.01,2013-02-18 22:20:00,
2013-02-18 14:25:00,64.3,39.5,29.93,North,359,0.0,6.0,40,0.00,,---,0.00,VWS V14.01,2013-02-18 22:25:00,
2013-02-18 14:30:00,64.2,39.4,29.92,North,3,0.0,0.0,40,0.00,,---,0.00,VWS V14.01,2013-02-18 22:30:00,
2013-02-18 14:35:00,63.9,39.1,29.92,North,356,1.0,6.0,40,0.00,,---,0.00,VWS V14.01,2013-02-18 22:35:00,
2013-02-18 14:40:00,63.7,39.0,29.92,West,278,0.0,6.0,40,0.00,,---,0.00,VWS V14.01,2013-02-18 22:40:00,
2013-02-18 14:45:00,63.9,39.1,29.92,NW,306,0.0,6.0,40,0.00,,---,0.00,VWS V14.01,2013-02-18 22:45:00,
2013-02-18 14:50:00,64.2,38.8,29.92,NW,306,0.0,6.0,39,0.00,,---,0.00,VWS V14.01,2013-02-18 22:50:00,
2013-02-18 14:55:00,64.2,38.1,29.92,North,359,1.0,6.0,38,0.00,,---,0.00,VWS V14.01,2013-02-18 22:55:00,
2013-02-18 15:00:00,63.9,38.5,29.91,NNW,333,0.0,0.0,39,0.00,,---,0.00,VWS V14.01,2013-02-18 23:00:00,
2013-02-18 15:05:00,63.9,38.5,29.91,WNW,296,0.0,2.0,39,0.00,,---,0.00,VWS V14.01,2013-02-18 23:05:00,
2013-02-18 15:10:00,63.7,38.3,29.91,North,352,0.0,3.0,39,0.00,,---,0.00,VWS V14.01,2013-02-18 23:10:00,
2013-02-18 15:15:00,63.9,39.1,29.91,NW,326,2.0,3.0,40,0.00,,---,0.00,VWS V14.01,2013-02-18 23:15:00,
2013-02-18 15:20:00,63.4,38.7,29.91,North,0,1.0,4.0,40,0.00,,---,0.00,VWS V14.01,2013-02-18 23:20:00,
2013-02-18 15:25:00,63.2,39.1,29.91,North,4,1.0,4.0,41,0.00,,---,0.00,VWS V14.01,2013-02-18 23:25:00,
2013-02-18 15:30:00,63.2,39.8,29.91,West,277,0.0,0.0,42,0.00,,---,0.00,VWS V14.01,2013-02-18 23:30:00,
2013-02-18 15:35:00,63.1,39.7,29.91,NNE,30,1.0,6.0,42,0.00,,---,0.00,VWS V14.01,2013-02-18 23:35:00,
2013-02-18 15:40:00,63.2,40.3,29.91,North,11,0.0,6.0,43,0.00,,---,0.00,VWS V14.01,2013-02-18 23:40:00,
2013-02-18 15:45:00,63.1,40.9,29.91,WNW,302,1.0,6.0,44,0.00,,---,0.00,VWS V14.01,2013-02-18 23:45:00,
2013-02-18 15:50:00,63.1,40.3,29.91,WNW,302,1.0,6.0,43,0.00,,---,0.00,VWS V14.01,2013-02-18 23:50:00,
2013-02-18 15:55:00,63.1,40.9,29.91,WNW,287,1.0,6.0,44,0.00,,---,0.00,VWS V14.01,2013-02-18 23:55:00,
2013-02-18 16:00:00,62.7,40.5,29.90,WNW,289,0.0,0.0,44,0.00,,---,0.00,VWS V14.01,2013-02-19 00:00:00,
2013-02-18 16:05:00,62.4,40.2,29.90,WNW,296,0.0,3.0,44,0.00,,---,0.00,VWS V14.01,2013-02-19 00:05:00,
2013-02-18 16:10:00,62.3,41.3,29.90,WNW,296,0.0,3.0,46,0.00,,---,0.00,VWS V14.01,2013-02-19 00:10:00,
2013-02-18 16:15:00,62.1,41.1,29.90,WNW,296,0.0,3.0,46,0.00,,---,0.00,VWS V14.01,2013-02-19 00:15:00,
2013-02-18 16:20:00,62.0,41.0,29.90,WNW,287,2.0,3.0,46,0.00,,---,0.00,VWS V14.01,2013-02-19 00:20:00,
2013-02-18 16:25:00,61.6,41.2,29.90,WNW,288,0.0,3.0,47,0.00,,---,0.00,VWS V14.01,2013-02-19 00:25:00,
2013-02-18 16:30:00,61.5,41.1,29.90,WNW,289,0.0,0.0,47,0.00,,---,0.00,VWS V14.01,2013-02-19 00:30:00,
2013-02-18 16:35:00,61.2,41.4,29.90,West,272,0.0,1.0,48,0.00,,---,0.00,VWS V14.01,2013-02-19 00:35:00,
2013-02-18 16:40:00,60.9,41.1,29.90,West,272,0.0,1.0,48,0.00,,---,0.00,VWS V14.01,2013-02-19 00:40:00,
2013-02-18 16:45:00,60.5,40.7,29.90,West,272,0.0,1.0,48,0.00,,---,0.00,VWS V14.01,2013-02-19 00:45:00,
2013-02-18 16:50:00,60.4,40.6,29.90,West,272,0.0,1.0,48,0.00,,---,0.00,VWS V14.01,2013-02-19 00:50:00,
2013-02-18 16:55:00,60.2,40.5,29.90,West,272,0.0,1.0,48,0.00,,---,0.00,VWS V14.01,2013-02-19 00:55:00,
2013-02-18 17:01:00,59.9,40.2,29.90,West,272,0.0,0.0,48,0.00,,---,0.00,VWS V14.01,2013-02-19 01:01:00,
2013-02-18 17:06:00,59.6,39.4,29.90,West,272,1.0,1.0,47,0.00,,---,0.00,VWS V14.01,2013-02-19 01:06:00,
2013-02-18 17:11:00,59.3,39.6,29.90,West,272,0.0,1.0,48,0.00,,---,0.00,VWS V14.01,2013-02-19 01:11:00,
2013-02-18 17:16:00,59.2,40.1,29.90,West,272,0.0,1.0,49,0.00,,---,0.00,VWS V14.01,2013-02-19 01:16:00,
2013-02-18 17:21:00,58.9,40.3,29.90,West,272,0.0,1.0,50,0.00,,---,0.00,VWS V14.01,2013-02-19 01:21:00,
2013-02-18 17:26:00,58.6,40.5,29.90,West,275,0.0,1.0,51,0.00,,---,0.00,VWS V14.01,2013-02-19 01:26:00,
2013-02-18 17:31:00,58.3,40.8,29.90,West,275,0.0,0.0,52,0.00,,---,0.00,VWS V14.01,2013-02-19 01:31:00,
2013-02-18 17:36:00,58.0,40.5,29.90,West,275,0.0,0.0,52,0.00,,---,0.00,VWS V14.01,2013-02-19 01:36:00,
2013-02-18 17:41:00,57.6,40.6,29.90,West,275,0.0,0.0,53,0.00,,---,0.00,VWS V14.01,2013-02-19 01:41:00,
2013-02-18 17:46:00,57.2,41.2,29.90,West,275,1.0,1.0,55,0.00,,---,0.00,VWS V14.01,2013-02-19 01:46:00,
2013-02-18 17:51:00,56.7,41.2,29.90,West,275,0.0,1.0,56,0.00,,---,0.00,VWS V14.01,2013-02-19 01:51:00,
2013-02-18 17:56:00,56.3,41.3,29.90,West,275,0.0,1.0,57,0.00,,---,0.00,VWS V14.01,2013-02-19 01:56:00,
2013-02-18 18:01:00,55.9,41.3,29.90,West,275,0.0,0.0,58,0.00,,---,0.00,VWS V14.01,2013-02-19 02:01:00,
2013-02-18 18:06:00,55.4,41.3,29.90,West,275,0.0,0.0,59,0.00,,---,0.00,VWS V14.01,2013-02-19 02:06:00,
2013-02-18 18:11:00,55.1,41.5,29.90,West,275,0.0,0.0,60,0.00,,---,0.00,VWS V14.01,2013-02-19 02:11:00,
2013-02-18 18:16:00,54.7,41.1,29.90,West,275,0.0,0.0,60,0.00,,---,0.00,VWS V14.01,2013-02-19 02:16:00,
2013-02-18 18:21:00,54.2,41.1,29.90,West,275,0.0,0.0,61,0.00,,---,0.00,VWS V14.01,2013-02-19 02:21:00,
2013-02-18 18:26:00,53.9,41.2,29.90,West,275,0.0,0.0,62,0.00,,---,0.00,VWS V14.01,2013-02-19 02:26:00,
2013-02-18 18:31:00,53.3,41.0,29.91,West,275,0.0,0.0,63,0.00,,---,0.00,VWS V14.01,2013-02-19 02:31:00,
2013-02-18 18:36:00,53.1,41.3,29.91,West,275,0.0,0.0,64,0.00,,---,0.00,VWS V14.01,2013-02-19 02:36:00,
2013-02-18 18:41:00,52.6,40.8,29.91,West,275,0.0,0.0,64,0.00,,---,0.00,VWS V14.01,2013-02-19 02:41:00,
2013-02-18 18:46:00,52.5,41.5,29.92,West,275,0.0,0.0,66,0.00,,---,0.00,VWS V14.01,2013-02-19 02:46:00,
2013-02-18 18:51:00,52.0,41.4,29.92,West,275,0.0,0.0,67,0.00,,---,0.00,VWS V14.01,2013-02-19 02:51:00,